createdAt,value
2023-02-27T00:01:23.311Z,100.00
2023-02-27T00:04:26.389Z,100.00
2023-02-27T00:07:29.343Z,100.00
2023-02-27T00:10:32.705Z,100.00
2023-02-27T00:13:37.267Z,100.00
2023-02-27T00:16:40.379Z,100.00
2023-02-27T00:19:43.206Z,100.00
2023-02-27T00:22:46.634Z,100.00
2023-02-27T00:25:50.109Z,100.00
2023-02-27T00:28:53.916Z,100.00
2023-02-27T00:31:58.454Z,100.00
2023-02-27T00:35:02.422Z,100.00
2023-02-27T00:38:05.392Z,100.00
2023-02-27T00:41:08.842Z,100.00
2023-02-27T00:44:11.543Z,100.00
2023-02-27T00:47:14.624Z,100.00
2023-02-27T00:50:17.871Z,100.00
2023-02-27T00:53:21.063Z,100.00
2023-02-27T00:56:23.940Z,100.00
2023-02-27T00:59:27.259Z,100.00
2023-02-27T01:02:30.513Z,100.00
2023-02-27T01:05:33.658Z,100.00
2023-02-27T01:08:36.487Z,100.00
2023-02-27T01:11:40.762Z,100.00
2023-02-27T01:14:44.460Z,100.00
2023-02-27T01:17:48.123Z,100.00
2023-02-27T05:47:20.120Z,100.00
2023-02-27T05:50:30.884Z,100.00
2023-02-27T05:53:38.224Z,100.00
2023-02-27T05:56:46.517Z,100.00
2023-02-27T06:00:21.300Z,100.00
2023-02-27T06:03:25.872Z,100.00
2023-02-27T06:06:30.674Z,100.00
2023-02-27T06:09:33.954Z,100.00
2023-02-27T06:12:36.741Z,100.00
2023-02-27T06:16:17.226Z,100.00
2023-02-27T06:19:39.827Z,100.00
2023-02-27T06:23:42.741Z,100.00
2023-02-27T06:27:10.246Z,100.00
2023-02-27T06:30:34.340Z,100.00
2023-02-27T16:40:37.673Z,90.88
2023-02-27T16:43:41.293Z,92.01
2023-02-27T16:46:44.635Z,93.09
2023-02-27T16:50:47.695Z,93.61
2023-02-27T16:53:56.778Z,97.48
2023-02-27T16:57:04.353Z,98.42
2023-02-27T17:00:10.852Z,100.00
2023-02-27T17:03:30.722Z,100.00
2023-02-27T17:06:51.948Z,100.00
2023-02-27T17:10:00.561Z,100.00
2023-02-27T17:13:23.281Z,100.00
2023-02-27T17:17:06.995Z,100.00
2023-02-27T17:20:12.314Z,100.00
2023-02-27T17:23:21.480Z,100.00
2023-02-27T17:26:28.953Z,100.00
2023-02-27T17:29:38.598Z,100.00
2023-02-27T17:32:41.833Z,100.00
2023-02-27T17:35:44.983Z,100.00
2023-02-27T17:39:08.027Z,100.00
2023-02-27T17:42:18.608Z,100.00
2023-02-27T17:45:21.868Z,100.00
2023-02-27T17:48:29.039Z,100.00
2023-02-27T17:51:32.350Z,100.00
2023-02-27T17:55:06.592Z,100.00
2023-02-27T17:58:10.220Z,100.00
2023-02-27T18:02:14.544Z,100.00
2023-02-27T18:05:18.221Z,100.00
2023-02-27T18:08:20.942Z,100.00
2023-02-27T18:11:24.068Z,100.00
2023-02-27T18:14:26.854Z,100.00
2023-02-27T18:17:29.948Z,100.00
2023-02-27T18:20:33.285Z,100.00
2023-02-27T18:23:36.991Z,100.00
2023-02-27T18:26:40.152Z,100.00
2023-02-27T18:29:49.412Z,100.00
2023-02-27T18:32:57.977Z,100.00
2023-02-27T18:36:01.195Z,100.00
2023-02-27T18:39:05.148Z,100.00
2023-02-27T18:42:08.510Z,100.00
2023-02-27T18:45:43.167Z,100.00
2023-02-27T18:48:46.804Z,100.00
2023-02-27T18:51:49.753Z,100.00
2023-02-27T18:54:55.895Z,100.00
2023-02-27T18:57:58.671Z,100.00
2023-02-27T19:01:07.426Z,100.00
2023-02-27T19:04:10.577Z,100.00
2023-02-27T19:07:14.673Z,100.00
2023-02-27T19:10:17.493Z,100.00
2023-02-27T19:13:20.578Z,100.00
2023-02-27T19:16:23.829Z,100.00
2023-02-27T19:19:30.169Z,100.00
2023-02-27T19:22:34.813Z,100.00
2023-02-27T19:25:38.048Z,100.00
2023-02-27T19:28:43.949Z,100.00
2023-02-27T19:31:47.677Z,100.00
2023-02-27T19:34:50.855Z,100.00
2023-02-27T19:37:58.662Z,100.00
2023-02-27T19:41:07.437Z,100.00
2023-02-27T19:44:51.026Z,100.00
2023-02-27T19:48:18.924Z,100.00
2023-02-27T19:51:22.463Z,100.00
2023-02-27T19:54:25.611Z,100.00
2023-02-27T19:57:28.790Z,100.00
2023-02-27T20:00:32.362Z,100.00
2023-02-27T20:03:36.468Z,100.00
2023-02-27T20:07:10.055Z,100.00
2023-02-27T20:10:13.608Z,100.00
2023-02-27T20:13:16.691Z,100.00
2023-02-27T20:16:40.576Z,100.00
2023-02-27T20:20:06.079Z,100.00
2023-02-27T20:23:30.888Z,100.00
2023-02-27T20:26:38.958Z,100.00
2023-02-27T20:30:02.493Z,100.00
2023-02-27T20:33:07.282Z,100.00
2023-02-27T20:36:51.921Z,100.00
2023-02-27T20:39:54.804Z,100.00
2023-02-27T20:42:58.286Z,100.00
2023-02-27T22:40:51.278Z,100.00
2023-02-27T22:43:55.334Z,100.00
2023-02-27T22:46:58.096Z,100.00
2023-02-27T22:50:01.510Z,100.00
2023-02-27T22:53:04.215Z,100.00
2023-02-27T22:56:09.979Z,100.00
2023-02-27T22:59:12.849Z,100.00
2023-02-27T23:02:17.373Z,100.00
2023-02-27T23:05:20.189Z,100.00
2023-02-27T23:08:23.240Z,100.00
2023-02-27T23:11:26.590Z,100.00
2023-02-27T23:14:29.951Z,100.00
2023-02-27T23:17:36.113Z,100.00
2023-02-27T23:20:40.501Z,100.00
2023-02-27T23:23:43.432Z,99.39
2023-02-27T23:26:49.828Z,100.00
2023-02-27T23:29:52.601Z,100.00
2023-02-27T23:32:56.863Z,100.00
2023-02-27T23:36:00.956Z,100.00
2023-02-27T23:39:06.180Z,100.00
2023-02-27T23:42:09.263Z,100.00
2023-02-27T23:45:25.026Z,100.00
2023-02-27T23:48:28.008Z,100.00
2023-02-27T23:51:31.550Z,100.00
2023-02-27T23:54:34.792Z,100.00
2023-02-27T23:57:37.850Z,100.00
